Time;durP1;ratioP1;P1;durP2;ratioP2;P2;SDS_P1;SDS_P2;PMS_P1;PMS_P2;Temp;Humidity;BMP_temperature;BMP_pressure;BME280_temperature;BME280_humidity;BME280_pressure;Samples;Min_cycle;Max_cycle;Signal;HPM_P1;HPM_P2
2021/12/01 00:02:01;;;;;;;10.10;4.47;;;;;;;;;;5050368;28;20045;-69
2021/12/01 00:04:27;;;;;;;6.53;4.20;;;;;;;;;;5050435;28;20057;-69
2021/12/01 00:06:52;;;;;;;6.60;4.30;;;;;;;;;;5049681;28;20124;-69
2021/12/01 00:09:18;;;;;;;7.80;4.53;;;;;;;;;;5049801;28;20029;-69
2021/12/01 00:11:43;;;;;;;8.27;5.00;;;;;;;;;;5050534;28;20036;-69
2021/12/01 00:14:08;;;;;;;6.47;4.30;;;;;;;;;;5033480;28;20029;-69
2021/12/01 00:16:34;;;;;;;7.50;4.38;;;;;;;;;;5048949;28;20033;-69
2021/12/01 00:18:59;;;;;;;5.93;3.60;;;;;;;;;;5051148;28;20037;-69
2021/12/01 00:21:25;;;;;;;5.28;3.55;;;;;;;;;;5032424;28;20141;-69
2021/12/01 00:23:50;;;;;;;4.70;3.10;;;;;;;;;;5050881;28;20021;-69
2021/12/01 00:26:15;;;;;;;8.95;3.50;;;;;;;;;;5049461;28;20469;-69
2021/12/01 00:28:41;;;;;;;8.45;3.80;;;;;;;;;;5049778;28;20025;-69
2021/12/01 00:31:07;;;;;;;5.53;3.55;;;;;;;;;;5032294;28;20037;-69
2021/12/01 00:33:33;;;;;;;6.35;3.67;;;;;;;;;;5050685;28;20485;-69
2021/12/01 00:35:58;;;;;;;8.60;3.95;;;;;;;;;;5048728;28;20041;-69
2021/12/01 00:38:25;;;;;;;6.93;4.47;;;;;;;;;;5030657;28;20193;-69
2021/12/01 00:40:51;;;;;;;5.28;4.03;;;;;;;;;;5048752;28;20059;-69
2021/12/01 00:43:17;;;;;;;9.23;4.95;;;;;;;;;;5049569;28;20044;-69
2021/12/01 00:45:54;;;;;;;7.55;4.57;;;;;;;;;;5049757;28;20068;-69
2021/12/01 00:48:20;;;;;;;7.57;4.88;;;;;;;;;;5026045;28;20129;-69
2021/12/01 00:50:46;;;;;;;7.78;4.53;;;;;;;;;;5031503;28;20525;-69
2021/12/01 00:53:12;;;;;;;7.70;4.32;;;;;;;;;;5029101;28;20021;-69
2021/12/01 00:55:40;;;;;;;9.40;4.82;;;;;;;;;;5042982;28;20041;-69
2021/12/01 00:58:06;;;;;;;9.07;4.10;;;;;;;;;;5032086;28;20065;-69
2021/12/01 01:00:32;;;;;;;8.63;4.85;;;;;;;;;;5047171;28;20096;-69
2021/12/01 01:02:58;;;;;;;7.32;3.95;;;;;;;;;;5047049;28;20025;-69
2021/12/01 01:05:24;;;;;;;6.88;4.20;;;;;;;;;;5033237;28;20031;-69
2021/12/01 01:07:50;;;;;;;8.80;5.13;;;;;;;;;;5049615;28;20037;-69
2021/12/01 01:18:19;;;;;;;8.90;5.22;;;;;;;;;;5047954;28;20112;-69
2021/12/01 01:20:45;;;;;;;9.82;5.80;;;;;;;;;;5049494;28;20108;-69
2021/12/01 01:23:10;;;;;;;9.93;5.47;;;;;;;;;;5049364;28;20398;-69
2021/12/01 01:25:36;;;;;;;9.98;5.07;;;;;;;;;;5046542;28;20040;-69
2021/12/01 01:28:01;;;;;;;11.35;6.47;;;;;;;;;;5050433;28;20035;-69
2021/12/01 01:30:27;;;;;;;12.32;6.18;;;;;;;;;;5050621;28;20041;-69
2021/12/01 01:32:52;;;;;;;11.23;5.53;;;;;;;;;;5049509;28;20480;-69
2021/12/01 01:35:18;;;;;;;9.15;5.35;;;;;;;;;;5049198;28;20017;-69
2021/12/01 01:37:44;;;;;;;10.50;6.20;;;;;;;;;;5044984;28;20041;-69
2021/12/01 01:40:10;;;;;;;12.27;5.93;;;;;;;;;;5048977;28;20090;-69
2021/12/01 01:42:36;;;;;;;11.85;5.78;;;;;;;;;;5042774;28;20029;-69
2021/12/01 01:45:01;;;;;;;11.32;6.15;;;;;;;;;;5032955;28;20045;-69
2021/12/01 01:47:27;;;;;;;8.43;5.53;;;;;;;;;;5050461;28;20057;-69
2021/12/01 01:50:18;;;;;;;8.23;3.92;;;;;;;;;;5048980;28;20116;-69
2021/12/01 01:52:44;;;;;;;14.75;7.70;;;;;;;;;;5049495;28;20047;-69
2021/12/01 01:55:09;;;;;;;10.80;5.85;;;;;;;;;;5048615;28;20025;-69
2021/12/01 01:57:35;;;;;;;13.82;7.05;;;;;;;;;;5047886;28;20029;-69
2021/12/01 02:00:00;;;;;;;11.07;6.40;;;;;;;;;;5050586;28;20033;-69
2021/12/01 02:02:26;;;;;;;13.40;6.18;;;;;;;;;;5050023;28;20104;-69
2021/12/01 02:04:51;;;;;;;13.40;6.90;;;;;;;;;;5050166;28;20414;-69
2021/12/01 02:07:17;;;;;;;11.98;6.47;;;;;;;;;;5047935;28;20055;-69
2021/12/01 02:09:43;;;;;;;13.05;6.95;;;;;;;;;;5049646;28;20040;-69
2021/12/01 02:12:08;;;;;;;13.30;6.53;;;;;;;;;;5047995;28;20057;-69
2021/12/01 02:14:34;;;;;;;12.30;6.68;;;;;;;;;;5046939;28;20466;-69
2021/12/01 02:16:59;;;;;;;9.98;5.88;;;;;;;;;;5031153;28;20037;-69
2021/12/01 02:19:25;;;;;;;12.82;6.60;;;;;;;;;;5049478;28;20036;-69
2021/12/01 02:21:51;;;;;;;11.48;6.78;;;;;;;;;;5030812;28;20555;-69
2021/12/01 02:24:19;;;;;;;12.30;6.97;;;;;;;;;;5031588;28;20033;-69
2021/12/01 02:26:47;;;;;;;9.48;5.35;;;;;;;;;;5030318;28;20029;-69
2021/12/01 02:29:20;;;;;;;10.60;5.40;;;;;;;;;;5023339;28;20087;-69
2021/12/01 02:31:45;;;;;;;9.88;4.65;;;;;;;;;;5031669;28;20444;-69
2021/12/01 02:34:16;;;;;;;8.93;5.28;;;;;;;;;;5043767;28;20535;-69
2021/12/01 02:36:44;;;;;;;10.18;5.15;;;;;;;;;;5048001;28;20509;-69
2021/12/01 02:39:11;;;;;;;7.68;4.47;;;;;;;;;;5048356;28;20469;-69
2021/12/01 02:41:37;;;;;;;8.57;4.25;;;;;;;;;;5047191;28;20076;-69
2021/12/01 02:44:05;;;;;;;8.18;3.78;;;;;;;;;;5048314;28;20052;-69
2021/12/01 02:46:31;;;;;;;10.30;4.40;;;;;;;;;;5047214;28;20522;-69
2021/12/01 02:48:57;;;;;;;7.15;3.80;;;;;;;;;;5045925;28;20098;-69
2021/12/01 02:51:27;;;;;;;7.30;3.80;;;;;;;;;;5047917;28;20041;-69
2021/12/01 02:53:52;;;;;;;6.10;3.72;;;;;;;;;;5045322;28;20059;-69
2021/12/01 02:56:21;;;;;;;4.68;2.95;;;;;;;;;;5048473;28;20639;-69
2021/12/01 02:58:47;;;;;;;6.10;3.58;;;;;;;;;;5048436;28;20047;-69
2021/12/01 03:01:16;;;;;;;4.45;2.67;;;;;;;;;;5044189;28;20438;-69
2021/12/01 03:03:42;;;;;;;5.75;3.38;;;;;;;;;;5048781;28;20097;-69
2021/12/01 03:06:08;;;;;;;4.97;3.00;;;;;;;;;;5047913;28;20050;-69
2021/12/01 03:08:35;;;;;;;4.53;3.00;;;;;;;;;;5049152;28;20082;-69
2021/12/01 03:11:01;;;;;;;7.68;2.88;;;;;;;;;;5047584;28;20045;-69
2021/12/01 03:13:26;;;;;;;5.28;3.22;;;;;;;;;;5048475;28;20052;-69
2021/12/01 03:15:53;;;;;;;6.57;2.85;;;;;;;;;;5047708;28;20042;-69
2021/12/01 03:18:19;;;;;;;4.00;2.78;;;;;;;;;;5045120;28;20098;-69
2021/12/01 03:20:46;;;;;;;4.55;2.78;;;;;;;;;;5029009;28;20060;-69
2021/12/01 03:23:12;;;;;;;3.17;2.25;;;;;;;;;;5049458;28;20029;-69
2021/12/01 03:25:37;;;;;;;3.50;2.45;;;;;;;;;;5043582;28;20043;-69
2021/12/01 03:28:06;;;;;;;4.47;2.80;;;;;;;;;;5047210;28;20096;-69
2021/12/01 03:30:34;;;;;;;5.60;2.72;;;;;;;;;;5042550;28;20096;-69
2021/12/01 03:33:01;;;;;;;3.78;2.05;;;;;;;;;;5045886;28;20041;-69
2021/12/01 03:35:27;;;;;;;4.22;2.60;;;;;;;;;;5048690;28;20028;-69
2021/12/01 03:37:52;;;;;;;3.85;2.38;;;;;;;;;;5047500;28;20044;-69
2021/12/01 03:40:18;;;;;;;4.03;2.35;;;;;;;;;;5029843;28;20065;-69
2021/12/01 03:42:44;;;;;;;4.05;2.58;;;;;;;;;;5047138;28;20029;-69
2021/12/01 03:45:10;;;;;;;5.63;2.45;;;;;;;;;;5041274;28;20061;-69
2021/12/01 03:47:36;;;;;;;6.28;2.55;;;;;;;;;;5049033;28;20028;-69
2021/12/01 03:50:02;;;;;;;2.97;2.33;;;;;;;;;;5044952;28;20636;-69
2021/12/01 03:52:28;;;;;;;4.20;1.73;;;;;;;;;;5046648;28;20041;-69
2021/12/01 03:54:53;;;;;;;3.65;2.10;;;;;;;;;;5047956;28;20035;-69
2021/12/01 03:57:20;;;;;;;5.32;2.17;;;;;;;;;;5047084;28;20499;-69
2021/12/01 03:59:46;;;;;;;3.55;2.38;;;;;;;;;;5030758;28;20112;-69
2021/12/01 04:02:11;;;;;;;3.85;2.20;;;;;;;;;;5049014;28;20104;-69
2021/12/01 04:04:37;;;;;;;3.35;2.13;;;;;;;;;;5046677;28;20113;-69
2021/12/01 04:07:03;;;;;;;5.15;2.22;;;;;;;;;;5048702;28;20033;-69
2021/12/01 04:09:30;;;;;;;2.95;1.73;;;;;;;;;;5046414;28;20041;-69
2021/12/01 04:11:55;;;;;;;4.78;1.95;;;;;;;;;;5044841;28;20025;-69
2021/12/01 04:14:21;;;;;;;5.20;2.00;;;;;;;;;;5042742;28;20051;-69
2021/12/01 04:16:46;;;;;;;3.67;1.90;;;;;;;;;;5044166;28;20063;-69
2021/12/01 04:19:12;;;;;;;2.65;1.70;;;;;;;;;;5044941;28;20118;-69
2021/12/01 04:21:38;;;;;;;2.83;1.70;;;;;;;;;;5051935;28;20075;-69
2021/12/01 04:24:04;;;;;;;2.92;1.63;;;;;;;;;;5050322;28;20044;-69
2021/12/01 04:26:33;;;;;;;3.20;2.08;;;;;;;;;;5051498;28;20036;-69
2021/12/01 04:28:59;;;;;;;2.60;2.00;;;;;;;;;;5050384;28;20037;-69
2021/12/01 04:31:26;;;;;;;3.08;1.70;;;;;;;;;;5051925;28;20045;-69
2021/12/01 04:33:52;;;;;;;2.90;1.90;;;;;;;;;;5050078;28;20065;-69
2021/12/01 04:36:18;;;;;;;3.78;1.88;;;;;;;;;;5033802;28;20118;-69
2021/12/01 04:38:44;;;;;;;3.17;1.77;;;;;;;;;;5033463;28;20056;-69
2021/12/01 04:41:12;;;;;;;3.42;1.98;;;;;;;;;;5051022;28;20032;-69
2021/12/01 04:43:38;;;;;;;2.08;1.40;;;;;;;;;;5050719;28;20029;-69
2021/12/01 04:46:05;;;;;;;2.92;1.85;;;;;;;;;;5051404;28;20037;-69
2021/12/01 04:48:30;;;;;;;1.13;1.02;;;;;;;;;;5051642;28;20036;-69
2021/12/01 04:50:56;;;;;;;2.60;1.70;;;;;;;;;;5051190;28;20028;-69
2021/12/01 04:53:22;;;;;;;2.17;1.67;;;;;;;;;;5049450;28;20457;-69
2021/12/01 04:55:48;;;;;;;3.95;1.67;;;;;;;;;;5050495;28;20040;-69
2021/12/01 04:58:13;;;;;;;3.03;1.50;;;;;;;;;;5050197;28;20430;-69
2021/12/01 05:00:39;;;;;;;2.38;1.65;;;;;;;;;;5032489;28;20029;-69
2021/12/01 05:03:05;;;;;;;3.35;1.50;;;;;;;;;;5048924;28;20040;-69
2021/12/01 05:05:30;;;;;;;4.53;1.63;;;;;;;;;;5050577;28;20384;-69
2021/12/01 05:07:56;;;;;;;2.80;1.77;;;;;;;;;;5049488;28;20710;-69
2021/12/01 05:10:22;;;;;;;1.95;1.25;;;;;;;;;;5049796;28;20037;-69
2021/12/01 05:12:47;;;;;;;1.88;1.30;;;;;;;;;;5050856;28;20046;-69
2021/12/01 05:15:13;;;;;;;3.38;1.75;;;;;;;;;;5043182;28;20041;-69
2021/12/01 05:17:38;;;;;;;2.70;1.70;;;;;;;;;;5051717;28;20052;-69
2021/12/01 05:20:05;;;;;;;3.10;1.65;;;;;;;;;;5045710;28;20051;-69
2021/12/01 05:22:30;;;;;;;2.00;1.25;;;;;;;;;;5051391;28;20024;-69
2021/12/01 05:24:56;;;;;;;2.83;1.63;;;;;;;;;;5050876;28;20045;-69
2021/12/01 05:27:22;;;;;;;3.03;1.85;;;;;;;;;;5046432;28;20068;-69
2021/12/01 05:29:48;;;;;;;2.40;1.50;;;;;;;;;;5050577;28;20083;-70
2021/12/01 05:32:13;;;;;;;4.15;2.22;;;;;;;;;;5032548;28;20021;-69
2021/12/01 05:34:39;;;;;;;3.63;2.00;;;;;;;;;;5032796;28;20033;-69
2021/12/01 05:37:04;;;;;;;7.00;1.92;;;;;;;;;;5032878;28;20045;-69
2021/12/01 05:39:32;;;;;;;3.45;2.22;;;;;;;;;;5048916;28;20579;-69
2021/12/01 05:41:58;;;;;;;3.10;1.67;;;;;;;;;;5028325;28;20760;-70
2021/12/01 05:44:23;;;;;;;2.38;1.67;;;;;;;;;;5030824;28;20021;-69
2021/12/01 05:46:49;;;;;;;3.17;1.50;;;;;;;;;;5030259;28;20036;-69
2021/12/01 05:49:14;;;;;;;2.38;1.60;;;;;;;;;;5029033;28;20430;-69
2021/12/01 05:51:40;;;;;;;3.67;1.73;;;;;;;;;;5025044;28;20046;-69
2021/12/01 05:54:07;;;;;;;2.80;1.85;;;;;;;;;;5028215;28;20095;-69
2021/12/01 05:56:33;;;;;;;2.83;1.52;;;;;;;;;;5030916;28;20041;-69
2021/12/01 05:58:58;;;;;;;1.85;1.27;;;;;;;;;;5027679;28;20041;-69
2021/12/01 06:01:24;;;;;;;3.80;1.52;;;;;;;;;;5030169;28;20033;-69
2021/12/01 06:03:50;;;;;;;1.75;1.42;;;;;;;;;;5029923;28;20040;-69
2021/12/01 06:06:15;;;;;;;2.65;1.63;;;;;;;;;;5029882;28;20037;-69
2021/12/01 06:08:42;;;;;;;4.85;2.50;;;;;;;;;;5028674;28;20033;-69
2021/12/01 06:11:07;;;;;;;3.53;1.85;;;;;;;;;;5030571;28;20495;-69
2021/12/01 06:13:33;;;;;;;2.67;1.50;;;;;;;;;;5021413;28;20541;-69
2021/12/01 06:15:58;;;;;;;2.42;1.60;;;;;;;;;;5026988;28;20045;-69
2021/12/01 06:18:24;;;;;;;2.55;1.52;;;;;;;;;;5021150;28;20457;-69
2021/12/01 06:20:49;;;;;;;3.65;1.70;;;;;;;;;;5028179;28;20018;-69
2021/12/01 06:23:15;;;;;;;1.70;1.50;;;;;;;;;;5029680;28;20033;-69
2021/12/01 06:25:40;;;;;;;3.75;1.60;;;;;;;;;;5027230;28;20038;-69
2021/12/01 06:28:06;;;;;;;2.08;1.50;;;;;;;;;;5026272;28;20034;-69
2021/12/01 06:30:34;;;;;;;1.65;1.33;;;;;;;;;;5023232;28;20077;-69
2021/12/01 06:32:59;;;;;;;3.88;1.33;;;;;;;;;;5027965;28;20107;-69
2021/12/01 06:35:25;;;;;;;2.95;1.38;;;;;;;;;;5028493;28;20037;-69
2021/12/01 06:37:52;;;;;;;3.22;1.70;;;;;;;;;;5028376;28;20045;-69
2021/12/01 06:40:18;;;;;;;1.85;1.40;;;;;;;;;;5032310;28;20052;-69
2021/12/01 06:42:43;;;;;;;3.28;1.80;;;;;;;;;;5029991;28;20522;-69
2021/12/01 06:45:10;;;;;;;3.70;2.42;;;;;;;;;;5047519;28;20032;-69
2021/12/01 06:47:36;;;;;;;3.38;1.73;;;;;;;;;;5050246;28;20053;-69
2021/12/01 06:50:04;;;;;;;4.55;1.55;;;;;;;;;;5048604;28;20435;-69
2021/12/01 06:52:29;;;;;;;2.35;1.48;;;;;;;;;;5047718;28;20518;-69
2021/12/01 06:54:56;;;;;;;2.88;1.45;;;;;;;;;;5031145;28;20033;-68
2021/12/01 06:57:21;;;;;;;2.28;1.23;;;;;;;;;;5041051;28;20161;-68
2021/12/01 06:59:47;;;;;;;3.13;1.45;;;;;;;;;;5043761;28;20574;-67
2021/12/01 07:02:12;;;;;;;2.63;1.50;;;;;;;;;;5023650;28;20032;-67
2021/12/01 07:04:38;;;;;;;2.38;1.83;;;;;;;;;;5048199;28;20040;-68
2021/12/01 07:07:04;;;;;;;4.15;2.08;;;;;;;;;;5047787;28;20033;-67
2021/12/01 07:09:29;;;;;;;3.15;1.98;;;;;;;;;;5029704;28;20029;-67
2021/12/01 07:11:55;;;;;;;3.65;1.88;;;;;;;;;;5047726;28;20116;-66
2021/12/01 07:14:21;;;;;;;3.50;2.30;;;;;;;;;;5039820;28;20099;-68
2021/12/01 07:16:47;;;;;;;4.80;2.50;;;;;;;;;;5048380;28;20041;-67
2021/12/01 07:19:12;;;;;;;3.13;1.90;;;;;;;;;;5048182;28;20041;-66
2021/12/01 07:21:37;;;;;;;2.58;1.63;;;;;;;;;;5047801;28;20128;-66
2021/12/01 07:24:04;;;;;;;4.85;1.85;;;;;;;;;;5046164;28;20037;-66
2021/12/01 07:26:30;;;;;;;2.40;1.88;;;;;;;;;;5041523;28;20075;-67
2021/12/01 07:28:55;;;;;;;4.05;2.13;;;;;;;;;;5047422;28;20033;-67
2021/12/01 07:31:21;;;;;;;3.63;1.73;;;;;;;;;;5047897;28;20033;-68
2021/12/01 07:33:46;;;;;;;2.50;2.10;;;;;;;;;;5045067;28;20037;-69
2021/12/01 07:36:12;;;;;;;2.88;1.60;;;;;;;;;;5028248;28;20112;-68
2021/12/01 07:38:37;;;;;;;3.10;1.70;;;;;;;;;;5046663;28;20028;-67
2021/12/01 07:41:02;;;;;;;3.30;1.70;;;;;;;;;;5046359;28;20037;-67
2021/12/01 07:43:28;;;;;;;2.20;1.50;;;;;;;;;;5046508;28;20033;-67
2021/12/01 07:45:53;;;;;;;1.52;1.20;;;;;;;;;;5047386;28;20040;-68
2021/12/01 07:48:19;;;;;;;2.08;1.70;;;;;;;;;;5047008;28;20082;-67
2021/12/01 07:50:44;;;;;;;4.90;2.05;;;;;;;;;;5029401;28;20017;-68
2021/12/01 07:53:10;;;;;;;3.20;2.17;;;;;;;;;;5019836;28;20100;-66
2021/12/01 07:55:35;;;;;;;3.08;1.75;;;;;;;;;;5028409;28;20033;-67
2021/12/01 07:58:01;;;;;;;3.25;2.15;;;;;;;;;;5046564;28;20033;-67
2021/12/01 08:00:27;;;;;;;3.17;2.20;;;;;;;;;;5048968;28;20190;-66
2021/12/01 08:02:52;;;;;;;4.10;2.38;;;;;;;;;;5051262;28;20021;-67
2021/12/01 08:05:18;;;;;;;2.80;1.88;;;;;;;;;;5051069;28;20028;-67
2021/12/01 08:07:43;;;;;;;4.07;2.55;;;;;;;;;;5032908;28;20048;-67
2021/12/01 08:10:10;;;;;;;2.58;1.88;;;;;;;;;;5051057;28;20037;-68
2021/12/01 08:12:36;;;;;;;3.70;2.10;;;;;;;;;;5051086;28;20045;-68
2021/12/01 08:15:04;;;;;;;4.03;2.22;;;;;;;;;;5051641;28;20033;-68
2021/12/01 08:17:29;;;;;;;10.57;2.80;;;;;;;;;;5047790;28;20078;-69
2021/12/01 08:19:57;;;;;;;5.60;3.10;;;;;;;;;;5029352;28;20037;-70
2021/12/01 08:22:23;;;;;;;4.35;3.00;;;;;;;;;;5028321;28;20064;-70
2021/12/01 08:24:49;;;;;;;4.68;2.80;;;;;;;;;;5048763;28;20514;-69
2021/12/01 08:27:16;;;;;;;6.50;3.72;;;;;;;;;;5049808;28;20078;-69
2021/12/01 08:29:41;;;;;;;11.88;3.83;;;;;;;;;;5050015;28;20406;-70
2021/12/01 08:32:07;;;;;;;4.82;2.95;;;;;;;;;;5049159;28;20030;-70
2021/12/01 08:34:32;;;;;;;5.40;3.63;;;;;;;;;;5049226;28;20518;-69
2021/12/01 08:36:58;;;;;;;7.63;4.20;;;;;;;;;;5030199;28;20387;-70
2021/12/01 08:39:23;;;;;;;4.90;3.40;;;;;;;;;;5048837;28;20525;-69
2021/12/01 08:41:48;;;;;;;6.53;3.70;;;;;;;;;;5042534;28;20536;-71
2021/12/01 08:44:14;;;;;;;5.20;3.65;;;;;;;;;;5038075;28;20134;-69
2021/12/01 08:46:40;;;;;;;7.20;4.30;;;;;;;;;;5040801;28;20323;-69
2021/12/01 08:49:05;;;;;;;5.22;3.60;;;;;;;;;;5031024;28;20053;-69
2021/12/01 08:51:31;;;;;;;5.43;4.47;;;;;;;;;;5048070;28;20035;-71
2021/12/01 08:53:57;;;;;;;5.05;3.80;;;;;;;;;;5049826;28;20039;-69
2021/12/01 08:56:22;;;;;;;4.60;3.20;;;;;;;;;;5039507;28;20079;-69
2021/12/01 08:58:48;;;;;;;5.38;3.33;;;;;;;;;;5036724;28;21135;-69
2021/12/01 09:01:13;;;;;;;5.70;3.38;;;;;;;;;;5021035;28;20045;-71
2021/12/01 09:03:39;;;;;;;4.38;3.35;;;;;;;;;;5039578;28;20077;-70
2021/12/01 09:06:04;;;;;;;4.88;2.92;;;;;;;;;;5036449;28;20044;-71
2021/12/01 09:08:29;;;;;;;3.72;2.60;;;;;;;;;;5026797;28;20028;-69
2021/12/01 09:10:58;;;;;;;3.03;2.45;;;;;;;;;;5045901;28;20045;-71
2021/12/01 09:13:26;;;;;;;3.60;2.22;;;;;;;;;;5029900;28;20044;-69
2021/12/01 09:15:53;;;;;;;4.00;2.60;;;;;;;;;;5045857;28;20037;-71
2021/12/01 09:18:19;;;;;;;5.63;2.53;;;;;;;;;;5036480;28;20248;-71
2021/12/01 09:20:45;;;;;;;6.03;3.42;;;;;;;;;;5033502;28;20527;-69
2021/12/01 09:23:11;;;;;;;9.05;3.58;;;;;;;;;;5035106;28;20018;-69
2021/12/01 09:25:36;;;;;;;9.05;4.32;;;;;;;;;;5040626;28;20044;-70
2021/12/01 09:28:02;;;;;;;11.45;5.20;;;;;;;;;;5029404;28;20409;-69
2021/12/01 09:30:28;;;;;;;11.38;6.75;;;;;;;;;;5029797;28;20041;-70
2021/12/01 09:32:53;;;;;;;12.32;7.35;;;;;;;;;;5047472;28;20040;-68
2021/12/01 09:35:19;;;;;;;11.50;6.82;;;;;;;;;;5046116;28;20061;-65
2021/12/01 09:37:44;;;;;;;12.43;5.97;;;;;;;;;;5044077;28;20067;-69
2021/12/01 09:40:14;;;;;;;13.27;6.40;;;;;;;;;;5039546;28;20467;-69
2021/12/01 09:42:43;;;;;;;7.80;4.57;;;;;;;;;;5037454;28;20528;-70
2021/12/01 09:45:09;;;;;;;6.97;2.88;;;;;;;;;;5029858;28;20037;-68
2021/12/01 09:47:35;;;;;;;6.40;2.70;;;;;;;;;;5038731;28;20026;-68
2021/12/01 09:50:00;;;;;;;6.32;3.08;;;;;;;;;;5046435;28;20037;-68
2021/12/01 09:52:25;;;;;;;11.68;3.15;;;;;;;;;;5042845;28;20048;-69
2021/12/01 09:54:51;;;;;;;6.40;2.70;;;;;;;;;;5019787;28;20033;-68
2021/12/01 09:57:16;;;;;;;6.40;3.05;;;;;;;;;;5034860;28;20124;-68
2021/12/01 09:59:43;;;;;;;6.40;3.40;;;;;;;;;;5036216;28;20033;-68
2021/12/01 10:02:11;;;;;;;7.68;3.63;;;;;;;;;;5041998;28;20071;-68
2021/12/01 10:04:37;;;;;;;6.80;3.00;;;;;;;;;;5038127;28;20526;-68
2021/12/01 10:07:33;;;;;;;9.02;3.65;;;;;;;;;;5025047;28;20040;-69
2021/12/01 10:10:07;;;;;;;9.10;3.60;;;;;;;;;;5007263;28;20037;-70
2021/12/01 10:12:47;;;;;;;7.53;3.72;;;;;;;;;;5036999;28;20053;-67
2021/12/01 10:15:13;;;;;;;9.00;4.30;;;;;;;;;;5034377;28;20029;-69
2021/12/01 10:17:39;;;;;;;7.85;4.38;;;;;;;;;;5045812;28;20043;-69
2021/12/01 10:20:12;;;;;;;7.88;4.00;;;;;;;;;;5040325;28;20021;-69
2021/12/01 10:22:38;;;;;;;9.70;4.55;;;;;;;;;;5041085;28;20048;-70
2021/12/01 10:25:04;;;;;;;7.85;3.05;;;;;;;;;;5036153;28;20041;-69
2021/12/01 10:27:37;;;;;;;4.43;2.30;;;;;;;;;;5045027;28;20032;-70
2021/12/01 10:30:03;;;;;;;;;;;;;;;;;;5023582;28;20041;-70
2021/12/01 10:32:28;;;;;;;4.28;1.60;;;;;;;;;;5029144;28;19919;-70
2021/12/01 10:34:57;;;;;;;11.45;1.92;;;;;;;;;;5046015;28;20573;-69
2021/12/01 10:37:30;;;;;;;8.55;2.17;;;;;;;;;;5041322;28;20140;-69
2021/12/01 10:40:21;;;;;;;2.92;1.40;;;;;;;;;;5035625;28;20041;-70
2021/12/01 10:42:58;;;;;;;5.35;1.80;;;;;;;;;;5031639;28;20037;-70
2021/12/01 10:45:26;;;;;;;6.25;1.40;;;;;;;;;;5029147;28;20044;-70
2021/12/01 10:47:54;;;;;;;6.53;1.60;;;;;;;;;;5040322;28;20025;-70
2021/12/01 10:50:22;;;;;;;4.05;1.63;;;;;;;;;;5061595;28;20052;-70
2021/12/01 10:53:12;;;;;;;9.02;1.70;;;;;;;;;;5041175;28;20040;-68
2021/12/01 10:55:58;;;;;;;3.47;1.40;;;;;;;;;;5035345;28;20537;-67
2021/12/01 10:58:50;;;;;;;8.10;2.33;;;;;;;;;;5022556;28;20060;-69
2021/12/01 11:01:23;;;;;;;8.25;1.73;;;;;;;;;;5024856;28;20429;-67
2021/12/01 11:03:50;;;;;;;;;;;;;;;;;;5046455;28;20037;-68
2021/12/01 11:06:20;;;;;;;4.78;1.42;;;;;;;;;;5026717;28;20401;-67
2021/12/01 11:08:48;;;;;;;7.53;1.63;;;;;;;;;;5010323;28;20123;-67
2021/12/01 11:11:16;;;;;;;5.45;1.30;;;;;;;;;;5040043;28;20024;-68
2021/12/01 11:13:44;;;;;;;4.25;1.50;;;;;;;;;;5043224;28;20580;-67
2021/12/01 11:16:12;;;;;;;4.70;1.55;;;;;;;;;;5036160;28;20056;-67
2021/12/01 11:18:40;;;;;;;6.53;1.55;;;;;;;;;;5033849;28;20509;-66
2021/12/01 11:21:21;;;;;;;3.53;1.17;;;;;;;;;;5044341;28;20037;-67
2021/12/01 11:23:59;;;;;;;3.03;0.93;;;;;;;;;;5029215;28;20021;-68
2021/12/01 11:26:27;;;;;;;3.35;1.42;;;;;;;;;;5046968;28;20167;-68
2021/12/01 11:29:00;;;;;;;4.05;1.50;;;;;;;;;;5035246;28;20037;-68
2021/12/01 11:31:37;;;;;;;3.15;1.20;;;;;;;;;;5042258;28;20041;-68
2021/12/01 11:34:06;;;;;;;7.15;1.17;;;;;;;;;;5042737;28;20514;-68
2021/12/01 11:36:39;;;;;;;4.90;1.38;;;;;;;;;;5044868;28;20534;-70
2021/12/01 11:39:11;;;;;;;4.95;1.33;;;;;;;;;;5039113;28;20041;-67
2021/12/01 11:41:43;;;;;;;5.50;2.08;;;;;;;;;;5028829;28;20045;-67
2021/12/01 11:44:10;;;;;;;5.35;1.25;;;;;;;;;;5032421;28;20041;-67
2021/12/01 11:46:36;;;;;;;6.05;1.63;;;;;;;;;;5038093;28;20045;-67
2021/12/01 11:49:08;;;;;;;3.05;1.30;;;;;;;;;;5044026;28;20579;-67
2021/12/01 11:52:04;;;;;;;2.25;1.10;;;;;;;;;;5038096;28;20128;-67
2021/12/01 11:54:31;;;;;;;5.80;1.48;;;;;;;;;;5043773;28;20057;-68
2021/12/01 11:57:07;;;;;;;3.03;1.05;;;;;;;;;;5044839;28;20025;-67
2021/12/01 11:59:36;;;;;;;2.30;0.90;;;;;;;;;;5043108;28;20037;-67
2021/12/01 12:02:02;;;;;;;5.93;1.67;;;;;;;;;;5041917;28;20029;-67
2021/12/01 12:04:41;;;;;;;3.28;1.27;;;;;;;;;;5037678;28;20518;-67
2021/12/01 12:07:27;;;;;;;1.80;0.95;;;;;;;;;;5043731;28;20041;-67
2021/12/01 12:10:19;;;;;;;6.70;1.13;;;;;;;;;;5041168;28;20136;-67
2021/12/01 12:13:00;;;;;;;3.67;1.60;;;;;;;;;;5036574;28;20518;-67
2021/12/01 12:15:36;;;;;;;4.22;1.30;;;;;;;;;;5021708;28;20522;-68
2021/12/01 12:18:01;;;;;;;4.28;1.33;;;;;;;;;;5034573;28;20065;-67
2021/12/01 12:20:40;;;;;;;5.47;1.67;;;;;;;;;;5039266;28;20430;-67
2021/12/01 12:23:09;;;;;;;9.38;1.88;;;;;;;;;;5033127;28;20041;-67
2021/12/01 12:25:37;;;;;;;4.68;1.60;;;;;;;;;;5022230;28;20041;-67
2021/12/01 12:28:22;;;;;;;2.70;1.60;;;;;;;;;;5034726;28;20037;-66
2021/12/01 12:30:48;;;;;;;5.80;1.58;;;;;;;;;;5041536;28;20033;-67
2021/12/01 12:33:31;;;;;;;5.22;2.00;;;;;;;;;;5041826;28;20045;-68
2021/12/01 12:36:04;;;;;;;;;;;;;;;;;;5037893;28;20044;-68
2021/12/01 12:38:30;;;;;;;8.13;1.65;;;;;;;;;;5038629;28;19917;-67
2021/12/01 12:41:08;;;;;;;4.63;2.30;;;;;;;;;;5044303;28;20053;-68
2021/12/01 12:43:34;;;;;;;5.38;2.17;;;;;;;;;;5029033;28;20441;-68
2021/12/01 12:46:03;;;;;;;3.80;1.55;;;;;;;;;;5039788;28;20553;-67
2021/12/01 12:48:34;;;;;;;5.03;2.15;;;;;;;;;;5046298;28;20171;-68
2021/12/01 12:51:11;;;;;;;3.35;1.27;;;;;;;;;;5038121;28;20039;-68
2021/12/01 12:53:59;;;;;;;3.97;1.40;;;;;;;;;;5010720;28;20036;-68
2021/12/01 12:56:31;;;;;;;4.07;1.10;;;;;;;;;;5044090;28;20041;-68
2021/12/01 12:59:26;;;;;;;5.72;1.83;;;;;;;;;;5038772;28;20445;-67
2021/12/01 13:02:09;;;;;;;3.15;1.42;;;;;;;;;;5036679;28;20033;-68
2021/12/01 13:07:45;;;;;;;3.13;1.23;;;;;;;;;;5041567;28;20041;-69
2021/12/01 13:10:30;;;;;;;3.70;1.40;;;;;;;;;;5045044;28;20025;-68
2021/12/01 13:13:07;;;;;;;4.22;1.23;;;;;;;;;;5038787;28;20539;-68
2021/12/01 13:15:45;;;;;;;5.80;1.60;;;;;;;;;;5042732;28;20056;-68
2021/12/01 13:18:12;;;;;;;5.82;2.28;;;;;;;;;;5039898;28;20033;-69
2021/12/01 13:20:40;;;;;;;3.33;1.10;;;;;;;;;;5045850;28;20383;-69
2021/12/01 13:23:20;;;;;;;7.20;1.77;;;;;;;;;;5034509;28;20083;-69
2021/12/01 13:25:56;;;;;;;1.88;1.50;;;;;;;;;;5044001;28;20041;-68
2021/12/01 13:28:34;;;;;;;2.80;1.50;;;;;;;;;;5022117;28;20033;-69
2021/12/01 13:31:12;;;;;;;3.15;1.42;;;;;;;;;;5038902;28;20036;-69
2021/12/01 13:33:56;;;;;;;5.40;2.15;;;;;;;;;;5039362;28;20040;-67
2021/12/01 13:36:23;;;;;;;5.22;1.05;;;;;;;;;;5030338;28;20043;-68
2021/12/01 13:39:16;;;;;;;3.05;1.50;;;;;;;;;;5045481;28;20033;-69
2021/12/01 13:41:47;;;;;;;5.35;1.88;;;;;;;;;;5040052;28;20056;-70
2021/12/01 13:44:17;;;;;;;7.05;1.40;;;;;;;;;;5044100;28;20013;-71
2021/12/01 13:46:45;;;;;;;3.53;1.75;;;;;;;;;;5042590;28;20036;-73
2021/12/01 13:49:10;;;;;;;5.20;1.50;;;;;;;;;;5041379;28;20078;-74
2021/12/01 13:51:40;;;;;;;2.40;1.23;;;;;;;;;;5045002;28;20037;-72
2021/12/01 13:54:18;;;;;;;6.25;2.35;;;;;;;;;;5044876;28;20502;-71
2021/12/01 13:56:50;;;;;;;7.30;1.88;;;;;;;;;;5044859;28;20098;-71
2021/12/01 13:59:16;;;;;;;5.20;1.38;;;;;;;;;;5024729;28;20033;-74
2021/12/01 14:01:45;;;;;;;7.60;2.28;;;;;;;;;;5040500;28;20140;-73
2021/12/01 14:04:12;;;;;;;4.90;2.78;;;;;;;;;;5025609;28;20086;-73
2021/12/01 14:06:38;;;;;;;3.38;1.70;;;;;;;;;;5024382;28;20427;-73
2021/12/01 14:09:10;;;;;;;5.22;2.30;;;;;;;;;;5028058;28;20041;-71
2021/12/01 14:11:43;;;;;;;1.70;1.25;;;;;;;;;;5046367;28;20029;-73
2021/12/01 14:14:13;;;;;;;7.45;2.20;;;;;;;;;;5044198;28;20064;-70
2021/12/01 14:16:44;;;;;;;6.20;1.80;;;;;;;;;;5029152;28;20091;-71
2021/12/01 14:19:10;;;;;;;6.15;2.58;;;;;;;;;;5021748;28;20029;-70
2021/12/01 14:21:36;;;;;;;7.95;1.77;;;;;;;;;;5046068;28;20603;-72
2021/12/01 14:24:10;;;;;;;9.20;2.10;;;;;;;;;;5024359;28;20041;-71
2021/12/01 14:26:58;;;;;;;5.57;1.73;;;;;;;;;;5039421;28;20033;-71
2021/12/01 14:29:24;;;;;;;5.20;2.20;;;;;;;;;;5039698;28;20115;-70
2021/12/01 14:32:17;;;;;;;7.88;2.30;;;;;;;;;;5040786;28;20052;-70
2021/12/01 14:34:42;;;;;;;6.57;1.70;;;;;;;;;;5025944;28;20048;-72
2021/12/01 14:37:11;;;;;;;9.02;2.40;;;;;;;;;;5042858;28;20048;-73
2021/12/01 14:39:36;;;;;;;8.18;2.22;;;;;;;;;;5019650;28;20175;-72
2021/12/01 14:42:02;;;;;;;5.75;2.05;;;;;;;;;;5042807;28;20111;-69
2021/12/01 14:44:41;;;;;;;6.82;2.00;;;;;;;;;;5044597;28;20036;-70
2021/12/01 14:47:09;;;;;;;5.13;1.48;;;;;;;;;;5040653;28;20053;-70
2021/12/01 14:49:38;;;;;;;4.65;2.08;;;;;;;;;;5044047;28;20045;-71
2021/12/01 14:52:05;;;;;;;6.68;2.08;;;;;;;;;;5038687;28;20056;-72
2021/12/01 14:54:38;;;;;;;7.45;2.20;;;;;;;;;;5041967;28;20069;-70
2021/12/01 14:57:12;;;;;;;7.13;1.77;;;;;;;;;;5023097;28;20123;-70
2021/12/01 14:59:47;;;;;;;11.18;2.45;;;;;;;;;;5042983;28;20036;-70
2021/12/01 15:02:21;;;;;;;6.60;1.83;;;;;;;;;;5040293;28;20044;-69